Time;durP1;ratioP1;P1;durP2;ratioP2;P2;SDS_P1;SDS_P2;PMS_P1;PMS_P2;Temp;Humidity;BMP_temperature;BMP_pressure;BME280_temperature;BME280_humidity;BME280_pressure;Samples;Min_cycle;Max_cycle;Signal;HPM_P1;HPM_P2
2023/05/25 00:01:43;;;;;;;12.57;3.92;;;21.10;50.80;;;;;;6247856;28;20037;-74
2023/05/25 00:04:53;;;;;;;7.18;3.90;;;21.00;50.80;;;;;;6266008;28;20033;-75
2023/05/25 00:08:06;;;;;;;8.95;4.20;;;21.00;50.80;;;;;;6250350;28;20084;-75
2023/05/25 00:11:15;;;;;;;6.05;3.70;;;21.00;50.80;;;;;;6241192;28;20110;-73
2023/05/25 00:14:21;;;;;;;9.13;3.80;;;21.00;50.80;;;;;;6241130;28;20048;-77
2023/05/25 00:17:30;;;;;;;5.53;3.35;;;20.90;50.80;;;;;;6242241;28;20480;-74
2023/05/25 00:20:38;;;;;;;7.15;3.88;;;20.80;51.00;;;;;;6240696;28;20033;-73
2023/05/25 00:23:45;;;;;;;7.47;3.97;;;20.70;51.30;;;;;;6240021;28;20048;-74
2023/05/25 00:26:58;;;;;;;5.47;3.60;;;20.60;51.50;;;;;;6265126;28;20456;-75
2023/05/25 00:30:04;;;;;;;7.45;3.92;;;20.50;51.70;;;;;;6256534;28;20134;-74
2023/05/25 00:33:12;;;;;;;6.77;3.90;;;20.50;51.80;;;;;;6240267;28;20037;-75
2023/05/25 00:36:22;;;;;;;5.68;3.58;;;20.40;52.00;;;;;;6239048;28;20060;-76
2023/05/25 00:39:30;;;;;;;6.13;3.72;;;20.40;52.10;;;;;;6240770;28;20037;-73
2023/05/25 00:42:39;;;;;;;10.68;3.63;;;20.30;52.10;;;;;;6238596;28;20033;-75
2023/05/25 00:45:47;;;;;;;6.85;3.78;;;20.30;52.20;;;;;;6239211;28;20040;-75
2023/05/25 00:49:01;;;;;;;6.10;3.80;;;20.30;52.20;;;;;;6238497;28;20152;-75
2023/05/25 00:52:04;;;;;;;6.10;3.92;;;20.20;52.30;;;;;;6259265;28;20069;-75
2023/05/25 00:55:18;;;;;;;6.90;3.42;;;20.20;52.30;;;;;;6264826;28;20041;-75
2023/05/25 00:58:26;;;;;;;10.38;4.03;;;20.10;52.30;;;;;;6263251;28;20039;-74
2023/05/25 01:01:38;;;;;;;9.98;3.35;;;20.10;52.40;;;;;;6258964;28;20041;-74
2023/05/25 01:05:02;;;;;;;8.60;3.35;;;20.00;52.60;;;;;;6240321;28;20052;-75
2023/05/25 01:08:10;;;;;;;8.80;3.65;;;19.90;53.40;;;;;;6239566;28;20037;-75
2023/05/25 01:11:18;;;;;;;8.27;3.17;;;19.80;52.90;;;;;;6240420;28;20492;-75
2023/05/25 01:14:26;;;;;;;11.07;3.85;;;19.70;53.00;;;;;;6264629;28;20040;-73
2023/05/25 01:17:36;;;;;;;9.43;4.00;;;19.70;53.10;;;;;;6249382;28;20033;-73
2023/05/25 01:21:16;;;;;;;7.03;3.75;;;19.70;53.10;;;;;;6239530;28;20485;-74
2023/05/25 01:24:31;;;;;;;8.30;3.72;;;19.70;53.10;;;;;;6262974;28;20132;-75
2023/05/25 01:27:38;;;;;;;7.40;4.28;;;19.80;52.90;;;;;;6262853;28;20044;-73
2023/05/25 01:30:52;;;;;;;8.13;3.65;;;19.80;52.60;;;;;;6263460;28;20064;-74
2023/05/25 01:34:02;;;;;;;5.35;3.25;;;19.80;52.50;;;;;;6263134;28;20142;-74
2023/05/25 01:37:12;;;;;;;6.32;3.35;;;19.80;52.50;;;;;;6267636;28;20033;-75
2023/05/25 01:40:22;;;;;;;7.55;3.83;;;19.80;52.50;;;;;;6267983;28;20110;-74
2023/05/25 01:43:29;;;;;;;7.18;3.78;;;19.80;52.60;;;;;;6268460;28;20064;-79
2023/05/25 01:46:40;;;;;;;6.00;3.83;;;19.80;52.50;;;;;;6267311;28;20036;-75
2023/05/25 01:50:05;;;;;;;8.65;3.50;;;19.80;52.30;;;;;;6269553;28;20040;-73
2023/05/25 01:53:23;;;;;;;12.38;3.50;;;19.90;52.20;;;;;;6268988;28;20029;-75
2023/05/25 01:56:31;;;;;;;11.52;3.95;;;20.00;52.00;;;;;;6267767;28;20029;-75
2023/05/25 01:59:42;;;;;;;8.63;3.67;;;20.00;51.90;;;;;;6262282;28;20037;-74
2023/05/25 02:02:54;;;;;;;5.78;3.53;;;20.00;51.90;;;;;;6245092;28;20044;-73
2023/05/25 02:06:05;;;;;;;7.47;3.70;;;20.00;51.90;;;;;;6250841;28;20029;-75
2023/05/25 02:09:10;;;;;;;;;;;19.90;52.00;;;;;;6251854;28;20680;-74
2023/05/25 02:12:19;;;;;;;6.35;3.78;;;19.90;52.20;;;;;;6269162;28;19912;-74
2023/05/25 02:15:25;;;;;;;7.15;3.72;;;19.90;52.20;;;;;;6268582;28;20520;-76
2023/05/25 02:18:31;;;;;;;9.40;3.40;;;19.90;52.30;;;;;;6263751;28;20025;-74
2023/05/25 02:21:40;;;;;;;6.88;3.83;;;19.90;52.30;;;;;;6267805;28;20095;-75
2023/05/25 02:24:46;;;;;;;10.88;4.47;;;19.90;52.30;;;;;;6268429;28;20062;-74
2023/05/25 02:27:57;;;;;;;12.33;4.70;;;19.90;52.40;;;;;;6266794;28;20120;-74
2023/05/25 02:31:06;;;;;;;5.95;3.75;;;19.80;52.40;;;;;;6246983;28;20037;-74
2023/05/25 02:34:16;;;;;;;8.02;4.10;;;19.70;52.40;;;;;;6258179;28;20040;-74
2023/05/25 02:37:25;;;;;;;10.50;4.18;;;19.70;52.60;;;;;;6243570;28;20037;-74
2023/05/25 02:40:31;;;;;;;10.90;4.88;;;19.60;52.70;;;;;;6243120;28;20052;-74
2023/05/25 02:43:42;;;;;;;6.28;3.85;;;19.60;52.80;;;;;;6244847;28;20040;-73
2023/05/25 02:46:47;;;;;;;9.38;3.70;;;19.60;52.80;;;;;;6265558;28;20040;-75
2023/05/25 02:49:55;;;;;;;7.47;4.03;;;19.60;52.90;;;;;;6267453;28;20028;-75
2023/05/25 02:53:06;;;;;;;12.98;4.43;;;19.60;52.90;;;;;;6259119;28;20033;-75
2023/05/25 02:56:15;;;;;;;6.20;3.50;;;19.50;52.90;;;;;;6251647;28;20791;-76
2023/05/25 02:59:23;;;;;;;11.75;4.45;;;19.50;52.90;;;;;;6267172;28;20040;-75
2023/05/25 03:02:30;;;;;;;7.85;3.80;;;19.40;52.80;;;;;;6265635;28;20079;-74
2023/05/25 03:05:40;;;;;;;14.18;3.63;;;19.50;52.80;;;;;;6245448;28;20061;-75
2023/05/25 03:08:47;;;;;;;7.38;4.18;;;19.50;52.80;;;;;;6242242;28;20076;-73
2023/05/25 03:11:52;;;;;;;7.50;4.03;;;19.50;52.90;;;;;;6242334;28;20083;-75
2023/05/25 03:15:01;;;;;;;13.50;4.10;;;19.40;52.90;;;;;;6234323;28;20040;-74
2023/05/25 03:18:10;;;;;;;8.18;4.43;;;19.30;53.00;;;;;;6259932;28;20088;-75
2023/05/25 03:21:23;;;;;;;11.05;4.22;;;19.50;53.20;;;;;;6242527;28;20021;-74
2023/05/25 03:24:30;;;;;;;7.05;3.92;;;19.30;53.20;;;;;;6242214;28;20072;-74
2023/05/25 03:27:40;;;;;;;6.97;4.28;;;19.30;53.30;;;;;;6266679;28;20071;-75
2023/05/25 03:30:47;;;;;;;8.18;4.53;;;19.20;53.40;;;;;;6265311;28;20097;-75
2023/05/25 03:33:54;;;;;;;7.65;4.43;;;19.10;53.60;;;;;;6265947;28;20178;-75
2023/05/25 03:37:02;;;;;;;8.48;4.40;;;19.10;53.80;;;;;;6254482;28;20767;-74
2023/05/25 03:40:29;;;;;;;12.45;4.40;;;19.00;53.80;;;;;;6241460;28;20080;-74
2023/05/25 03:43:38;;;;;;;10.93;4.40;;;19.00;54.00;;;;;;6266840;28;20036;-74
2023/05/25 03:46:44;;;;;;;10.32;4.07;;;18.90;54.30;;;;;;6262590;28;20104;-74
2023/05/25 03:49:52;;;;;;;8.10;3.67;;;18.90;54.30;;;;;;6240254;28;20079;-74
2023/05/25 03:52:58;;;;;;;12.60;4.88;;;18.80;54.30;;;;;;6242160;28;20240;-74
2023/05/25 03:56:06;;;;;;;7.82;4.25;;;18.80;54.30;;;;;;6241633;28;20036;-74
2023/05/25 03:59:19;;;;;;;9.32;4.50;;;18.80;54.40;;;;;;6259336;28;20067;-74
2023/05/25 04:02:25;;;;;;;10.27;4.38;;;18.80;54.50;;;;;;6265704;28;20433;-73
2023/05/25 04:05:31;;;;;;;11.40;4.40;;;18.80;54.50;;;;;;6266085;28;20033;-73
2023/05/25 04:08:42;;;;;;;8.55;4.57;;;18.70;54.50;;;;;;6248015;28;20040;-74
2023/05/25 04:11:49;;;;;;;7.90;3.85;;;18.70;54.50;;;;;;6277465;28;20047;-74
2023/05/25 04:14:55;;;;;;;8.65;4.18;;;18.60;54.50;;;;;;6289189;28;20078;-75
2023/05/25 04:18:02;;;;;;;5.88;3.47;;;18.60;54.60;;;;;;6288739;28;20020;-75
2023/05/25 04:21:13;;;;;;;9.40;5.20;;;18.50;54.70;;;;;;6247384;28;20036;-74
2023/05/25 04:24:21;;;;;;;8.52;3.90;;;18.50;54.70;;;;;;6241095;28;20085;-73
2023/05/25 04:27:27;;;;;;;8.30;3.97;;;18.50;54.70;;;;;;6240890;28;20044;-75
2023/05/25 04:30:36;;;;;;;12.60;3.70;;;18.40;54.70;;;;;;6250792;28;20070;-73
2023/05/25 04:33:58;;;;;;;5.25;2.83;;;18.30;55.30;;;;;;6253181;28;20033;-74
2023/05/25 04:37:09;;;;;;;8.32;3.67;;;18.30;54.70;;;;;;6239169;28;20029;-76
2023/05/25 04:40:20;;;;;;;9.57;3.20;;;18.20;54.60;;;;;;6241863;28;20029;-74
2023/05/25 04:43:26;;;;;;;9.13;3.47;;;18.20;54.60;;;;;;6265085;28;20362;-74
2023/05/25 04:46:36;;;;;;;5.68;3.33;;;18.10;54.50;;;;;;6265430;28;20035;-73
2023/05/25 04:49:41;;;;;;;7.57;3.33;;;18.10;54.40;;;;;;6264327;28;20033;-76
2023/05/25 04:52:46;;;;;;;6.10;3.10;;;18.10;54.20;;;;;;6263940;28;20066;-74
2023/05/25 04:55:51;;;;;;;5.03;2.83;;;18.10;54.10;;;;;;6253464;28;20704;-74
2023/05/25 04:58:56;;;;;;;7.85;3.03;;;18.10;53.90;;;;;;6264411;28;20123;-72
2023/05/25 05:02:00;;;;;;;5.47;2.80;;;18.10;53.80;;;;;;6263122;28;20021;-73
2023/05/25 05:05:03;;;;;;;11.38;3.00;;;18.10;53.70;;;;;;6261597;28;20037;-73
2023/05/25 05:08:08;;;;;;;8.00;2.80;;;18.10;53.60;;;;;;6251303;28;20068;-75
2023/05/25 05:11:13;;;;;;;15.50;3.05;;;18.10;53.50;;;;;;6245355;28;20041;-72
2023/05/25 05:14:20;;;;;;;6.55;2.70;;;18.00;53.40;;;;;;6248897;28;20017;-73
2023/05/25 05:17:26;;;;;;;6.57;2.63;;;18.00;53.30;;;;;;6256100;28;20100;-72
2023/05/25 05:20:33;;;;;;;6.50;3.05;;;18.00;53.30;;;;;;6269272;28;20095;-74
2023/05/25 05:23:45;;;;;;;8.45;2.55;;;18.10;53.20;;;;;;6271377;28;20029;-72
2023/05/25 05:26:55;;;;;;;10.10;2.78;;;18.10;53.10;;;;;;6263918;28;20029;-72
2023/05/25 05:30:11;;;;;;;8.00;2.60;;;18.10;52.80;;;;;;6262188;28;20024;-73
2023/05/25 05:33:24;;;;;;;8.85;2.63;;;18.20;52.80;;;;;;6267518;28;20124;-72
2023/05/25 05:36:28;;;;;;;4.47;2.50;;;18.10;52.60;;;;;;6268080;28;20059;-73
2023/05/25 05:39:35;;;;;;;7.90;2.90;;;18.10;52.60;;;;;;6261476;28;20059;-72
2023/05/25 05:42:41;;;;;;;5.75;2.78;;;18.10;52.60;;;;;;6267536;28;20075;-74
2023/05/25 05:45:47;;;;;;;8.43;2.88;;;18.10;53.20;;;;;;6268322;28;20116;-72
2023/05/25 05:48:59;;;;;;;7.53;2.03;;;18.10;52.60;;;;;;6266023;28;20035;-73
2023/05/25 05:52:09;;;;;;;9.65;3.25;;;18.10;52.50;;;;;;6247918;28;20100;-71
2023/05/25 05:55:23;;;;;;;8.85;2.58;;;18.20;52.50;;;;;;6258329;28;20557;-74
2023/05/25 05:58:32;;;;;;;5.75;3.17;;;18.20;52.40;;;;;;6266880;28;20028;-72
2023/05/25 06:01:42;;;;;;;11.40;3.05;;;18.20;52.40;;;;;;6227927;28;20461;-74
2023/05/25 06:04:55;;;;;;;6.78;3.10;;;18.20;52.40;;;;;;6263220;28;20025;-74
2023/05/25 06:08:04;;;;;;;10.68;2.85;;;18.30;52.40;;;;;;6267275;28;20512;-73
2023/05/25 06:11:13;;;;;;;7.20;3.13;;;18.40;52.40;;;;;;6267162;28;20291;-72
2023/05/25 06:14:23;;;;;;;4.25;2.90;;;18.30;52.30;;;;;;6269294;28;20047;-74
2023/05/25 06:17:29;;;;;;;4.97;2.72;;;18.30;52.40;;;;;;6268807;28;20040;-71
2023/05/25 06:20:35;;;;;;;;;;;18.30;52.40;;;;;;6268855;28;20439;-71
2023/05/25 06:23:41;;;;;;;11.60;2.75;;;18.30;52.30;;;;;;6283757;28;19909;-73
2023/05/25 06:26:50;;;;;;;8.27;3.00;;;18.20;52.20;;;;;;6268458;28;20037;-75
2023/05/25 06:30:02;;;;;;;6.55;2.90;;;18.20;52.30;;;;;;6267867;28;20037;-74
2023/05/25 06:33:10;;;;;;;9.00;2.80;;;18.20;52.40;;;;;;6267856;28;20029;-73
2023/05/25 06:36:17;;;;;;;12.93;3.08;;;18.10;52.50;;;;;;6267872;28;20119;-75
2023/05/25 06:39:25;;;;;;;9.32;2.72;;;18.10;52.70;;;;;;6243163;28;20037;-74
2023/05/25 06:42:31;;;;;;;8.02;3.42;;;18.10;52.70;;;;;;6242330;28;20037;-74
2023/05/25 06:45:40;;;;;;;5.80;3.05;;;18.10;52.80;;;;;;6258646;28;20064;-73
2023/05/25 06:48:46;;;;;;;5.93;3.08;;;18.10;52.80;;;;;;6243043;28;20108;-72
2023/05/25 06:51:56;;;;;;;7.45;3.17;;;18.10;52.80;;;;;;6234641;28;20035;-73
2023/05/25 06:55:04;;;;;;;7.80;3.30;;;18.10;52.90;;;;;;6268629;28;20147;-73
2023/05/25 06:58:13;;;;;;;5.47;2.63;;;18.10;53.10;;;;;;6268200;28;20033;-73
2023/05/25 07:01:23;;;;;;;14.65;3.17;;;18.10;53.30;;;;;;6285901;28;20025;-75
2023/05/25 07:04:31;;;;;;;6.22;3.17;;;18.10;53.70;;;;;;6292900;28;20039;-72
2023/05/25 07:07:39;;;;;;;6.93;3.10;;;18.10;53.90;;;;;;6292858;28;20476;-71
2023/05/25 07:10:46;;;;;;;;;;;18.10;54.30;;;;;;6275772;28;20032;-71
2023/05/25 07:13:54;;;;;;;12.70;3.70;;;18.10;54.60;;;;;;6291522;28;20004;-74
2023/05/25 07:17:05;;;;;;;14.48;3.55;;;18.10;54.80;;;;;;6290790;28;20032;-73
2023/05/25 07:20:11;;;;;;;6.93;3.13;;;18.10;55.00;;;;;;6274729;28;20037;-73
2023/05/25 07:23:20;;;;;;;19.05;3.75;;;18.10;55.20;;;;;;6274899;28;20056;-73
2023/05/25 07:26:27;;;;;;;11.00;3.88;;;18.10;55.30;;;;;;6290698;28;20163;-74
2023/05/25 07:29:34;;;;;;;10.07;3.72;;;18.10;55.50;;;;;;6290802;28;20047;-73
2023/05/25 07:32:42;;;;;;;7.95;3.28;;;18.20;55.60;;;;;;6284259;28;20028;-72
2023/05/25 07:35:47;;;;;;;11.52;3.60;;;18.20;55.70;;;;;;6267439;28;20191;-77
2023/05/25 07:38:58;;;;;;;16.77;4.25;;;18.20;55.90;;;;;;6266821;28;20073;-74
2023/05/25 07:42:04;;;;;;;8.98;3.70;;;18.20;56.00;;;;;;6266843;28;20120;-73
2023/05/25 07:45:12;;;;;;;9.73;3.78;;;18.20;56.30;;;;;;6265079;28;20518;-72
2023/05/25 07:48:21;;;;;;;10.27;4.00;;;18.10;56.40;;;;;;6266417;28;20029;-73
2023/05/25 07:51:31;;;;;;;19.40;4.43;;;18.20;56.40;;;;;;6265078;28;20060;-72
2023/05/25 07:54:40;;;;;;;7.95;4.10;;;18.20;56.40;;;;;;6265403;28;20041;-72
2023/05/25 07:57:45;;;;;;;16.92;4.30;;;18.10;56.20;;;;;;6284583;28;20070;-73
2023/05/25 08:00:55;;;;;;;8.00;3.70;;;18.40;56.20;;;;;;6289953;28;20032;-72
2023/05/25 08:04:04;;;;;;;7.65;3.95;;;18.40;56.10;;;;;;6294571;28;20175;-73
2023/05/25 08:07:13;;;;;;;13.18;3.67;;;18.50;56.00;;;;;;6291352;28;20455;-73
2023/05/25 08:10:31;;;;;;;9.75;3.95;;;18.50;55.90;;;;;;6291537;28;20245;-73
2023/05/25 08:13:44;;;;;;;12.25;4.05;;;18.50;55.80;;;;;;6290264;28;20036;-74
2023/05/25 08:16:52;;;;;;;13.35;3.92;;;18.50;55.70;;;;;;6291132;28;20079;-73
2023/05/25 08:20:05;;;;;;;11.25;4.22;;;18.60;55.70;;;;;;6291063;28;20032;-71
2023/05/25 08:23:13;;;;;;;12.20;4.20;;;18.60;55.70;;;;;;6290786;28;20070;-73
2023/05/25 08:26:24;;;;;;;11.38;4.18;;;18.70;55.80;;;;;;6290234;28;20506;-72
2023/05/25 08:29:31;;;;;;;9.85;4.05;;;18.70;55.80;;;;;;6268490;28;20472;-73
2023/05/25 08:32:41;;;;;;;14.70;4.60;;;18.80;55.80;;;;;;6265774;28;20040;-74
2023/05/25 08:35:48;;;;;;;11.00;4.63;;;18.90;55.80;;;;;;6264541;28;20039;-71
2023/05/25 08:38:55;;;;;;;13.95;4.57;;;18.90;55.50;;;;;;6264828;28;20116;-75
2023/05/25 08:42:02;;;;;;;9.48;5.15;;;19.00;55.50;;;;;;6264979;28;20551;-74
2023/05/25 08:45:11;;;;;;;10.50;4.60;;;19.20;55.50;;;;;;6265227;28;20116;-75
2023/05/25 08:48:21;;;;;;;10.40;4.03;;;19.30;55.10;;;;;;6263545;28;20081;-74
2023/05/25 08:51:31;;;;;;;7.50;4.22;;;19.50;54.70;;;;;;6264401;28;20040;-73
2023/05/25 08:54:38;;;;;;;10.57;4.50;;;19.70;54.50;;;;;;6240905;28;20060;-73
2023/05/25 08:58:06;;;;;;;15.20;4.43;;;19.90;54.10;;;;;;6264730;28;20032;-74
2023/05/25 09:01:26;;;;;;;9.88;4.53;;;20.00;53.80;;;;;;6267970;28;20392;-73
2023/05/25 09:04:36;;;;;;;11.70;4.68;;;20.20;53.50;;;;;;6266710;28;20029;-73
2023/05/25 09:07:44;;;;;;;14.00;4.68;;;20.30;53.30;;;;;;6265883;28;20095;-72
2023/05/25 09:10:53;;;;;;;12.00;4.70;;;20.40;53.20;;;;;;6265472;28;20033;-73
2023/05/25 09:14:01;;;;;;;13.68;5.10;;;20.50;52.80;;;;;;6265856;28;20259;-73
2023/05/25 09:17:10;;;;;;;;;;;20.60;52.60;;;;;;6264472;28;20025;-73
2023/05/25 09:20:23;;;;;;;12.15;4.80;;;20.70;52.40;;;;;;6264876;28;19916;-72
2023/05/25 09:23:31;;;;;;;17.52;5.03;;;20.80;52.30;;;;;;6265336;28;20032;-73
2023/05/25 09:26:37;;;;;;;9.77;4.47;;;20.90;52.10;;;;;;6264830;28;20082;-73
2023/05/25 09:29:45;;;;;;;10.33;4.70;;;21.10;52.10;;;;;;6247009;28;20406;-73
2023/05/25 09:32:51;;;;;;;12.35;5.95;;;21.30;51.90;;;;;;6254759;28;20119;-73
2023/05/25 09:35:57;;;;;;;18.27;5.95;;;21.50;51.60;;;;;;6239898;28;20069;-73
2023/05/25 09:39:17;;;;;;;10.55;5.18;;;21.60;51.40;;;;;;6240524;28;20045;-72
2023/05/25 09:42:22;;;;;;;;;;;21.70;51.50;;;;;;6240745;28;20120;-73
2023/05/25 09:45:30;;;;;;;17.15;5.70;;;21.90;51.30;;;;;;6240223;28;19963;-72
2023/05/25 09:48:35;;;;;;;19.55;5.75;;;22.10;50.60;;;;;;6253704;28;20028;-73
2023/05/25 09:51:45;;;;;;;10.50;6.38;;;22.20;50.50;;;;;;6283326;28;20018;-74
2023/05/25 09:54:53;;;;;;;14.55;5.80;;;22.50;50.30;;;;;;6266192;28;20074;-73
2023/05/25 09:58:00;;;;;;;14.65;6.78;;;22.60;50.40;;;;;;6268954;28;20024;-72
2023/05/25 10:01:06;;;;;;;13.20;6.32;;;22.80;49.90;;;;;;6268139;28;20029;-74
2023/05/25 10:04:19;;;;;;;11.30;6.25;;;22.90;49.60;;;;;;6267549;28;20029;-73
2023/05/25 10:07:26;;;;;;;13.13;6.35;;;23.00;49.20;;;;;;6269111;28;20029;-75
2023/05/25 10:10:33;;;;;;;17.83;7.20;;;23.10;49.10;;;;;;6268869;28;20421;-73
2023/05/25 10:13:42;;;;;;;13.15;6.30;;;23.40;48.80;;;;;;6267443;28;20033;-73
2023/05/25 10:16:50;;;;;;;18.42;7.50;;;23.50;48.30;;;;;;6267509;28;20118;-73
2023/05/25 10:20:04;;;;;;;17.00;7.30;;;23.60;47.90;;;;;;6267570;28;20283;-72
2023/05/25 10:23:16;;;;;;;14.98;5.97;;;23.60;47.70;;;;;;6267888;28;20064;-74
2023/05/25 10:26:27;;;;;;;22.20;7.43;;;23.70;47.50;;;;;;6268647;28;20033;-74
2023/05/25 10:29:33;;;;;;;27.20;10.57;;;23.80;47.70;;;;;;6269094;28;20025;-72
2023/05/25 10:32:41;;;;;;;;;;;24.00;47.50;;;;;;6269583;28;20079;-72
2023/05/25 10:35:49;;;;;;;13.93;7.22;;;24.20;47.40;;;;;;6269209;28;19996;-72
2023/05/25 10:38:58;;;;;;;20.23;7.97;;;24.40;47.00;;;;;;6267547;28;20053;-74
2023/05/25 10:42:05;;;;;;;10.52;6.32;;;24.50;47.00;;;;;;6266981;28;20186;-72
2023/05/25 10:45:16;;;;;;;17.17;7.10;;;24.50;46.40;;;;;;6240014;28;20048;-73
2023/05/25 10:48:25;;;;;;;12.48;5.72;;;24.40;46.10;;;;;;6242380;28;20030;-73
2023/05/25 10:51:42;;;;;;;13.75;7.25;;;24.10;46.20;;;;;;6247063;28;20024;-72
2023/05/25 10:54:49;;;;;;;20.90;7.78;;;24.00;46.90;;;;;;6251232;28;20033;-75
2023/05/25 10:58:18;;;;;;;10.95;6.15;;;23.90;47.00;;;;;;6268592;28;20021;-76
2023/05/25 11:01:25;;;;;;;14.98;5.30;;;24.30;46.90;;;;;;6267315;28;20549;-74
2023/05/25 11:04:36;;;;;;;8.20;4.32;;;25.30;45.30;;;;;;6266406;28;20029;-73
2023/05/25 11:08:00;;;;;;;6.78;4.70;;;26.30;43.60;;;;;;6265333;28;20649;-75
2023/05/25 11:11:07;;;;;;;11.52;4.97;;;27.00;41.80;;;;;;6267676;28;20396;-73
2023/05/25 11:14:31;;;;;;;8.70;5.28;;;27.30;41.10;;;;;;6267805;28;20183;-74
2023/05/25 11:18:12;;;;;;;8.95;4.45;;;27.70;40.30;;;;;;6266976;28;20048;-75
2023/05/25 11:21:30;;;;;;;7.90;3.97;;;27.90;39.50;;;;;;6243619;28;20029;-75
2023/05/25 11:24:38;;;;;;;9.25;4.60;;;27.90;39.30;;;;;;6241876;28;20036;-74
2023/05/25 11:27:53;;;;;;;10.73;4.38;;;28.30;38.90;;;;;;6258267;28;20091;-73
2023/05/25 11:31:01;;;;;;;10.88;4.60;;;28.40;38.70;;;;;;6257598;28;20091;-76
2023/05/25 11:34:08;;;;;;;9.20;4.85;;;28.80;38.40;;;;;;6259255;28;20039;-75
2023/05/25 11:37:29;;;;;;;8.07;4.45;;;29.10;37.30;;;;;;6243062;28;20120;-76
2023/05/25 11:40:36;;;;;;;6.57;4.18;;;29.00;36.50;;;;;;6259816;28;20067;-77
2023/05/25 11:43:48;;;;;;;12.10;4.60;;;28.90;36.60;;;;;;6250285;28;20029;-74
2023/05/25 11:47:00;;;;;;;9.27;4.70;;;28.90;36.80;;;;;;6266296;28;20060;-74
2023/05/25 11:50:07;;;;;;;11.38;4.72;;;29.10;37.10;;;;;;6235220;28;20033;-76
2023/05/25 11:53:17;;;;;;;12.73;4.88;;;29.40;36.80;;;;;;6267961;28;20032;-76
2023/05/25 11:56:25;;;;;;;7.65;4.03;;;29.70;36.30;;;;;;6267433;28;20068;-75
2023/05/25 11:59:31;;;;;;;8.10;4.38;;;30.00;35.80;;;;;;6265423;28;20051;-74
2023/05/25 12:02:42;;;;;;;7.32;4.05;;;30.10;35.50;;;;;;6269703;28;20044;-76
2023/05/25 12:05:49;;;;;;;7.28;3.83;;;30.00;35.50;;;;;;6271768;28;20044;-74
2023/05/25 12:08:57;;;;;;;13.95;3.83;;;30.30;35.30;;;;;;6273209;28;20029;-75
2023/05/25 12:12:06;;;;;;;6.10;3.78;;;30.20;35.30;;;;;;6270396;28;20103;-75
2023/05/25 12:15:23;;;;;;;6.18;4.15;;;30.20;35.10;;;;;;6267242;28;20056;-76
2023/05/25 12:18:29;;;;;;;8.15;3.80;;;30.30;34.60;;;;;;6266858;28;20094;-74
2023/05/25 12:21:38;;;;;;;8.27;3.50;;;30.50;34.60;;;;;;6265508;28;20032;-74
2023/05/25 12:24:45;;;;;;;8.02;3.35;;;30.90;34.30;;;;;;6265992;28;20025;-75
2023/05/25 12:28:18;;;;;;;7.03;2.85;;;31.10;33.50;;;;;;6265693;28;20100;-78
2023/05/25 12:31:28;;;;;;;10.40;3.05;;;31.40;32.90;;;;;;6266461;28;20519;-76
2023/05/25 12:34:36;;;;;;;7.38;3.78;;;31.80;32.20;;;;;;6265053;28;20284;-75
2023/05/25 12:37:42;;;;;;;3.42;2.55;;;32.10;31.60;;;;;;6270796;28;20122;-76
2023/05/25 12:41:06;;;;;;;6.45;2.90;;;32.50;31.00;;;;;;6290862;28;20101;-75
2023/05/25 12:44:25;;;;;;;5.95;2.83;;;32.90;30.50;;;;;;6290843;28;20071;-78
2023/05/25 12:47:31;;;;;;;5.43;3.07;;;33.20;30.00;;;;;;6289476;28;20032;-76
2023/05/25 12:50:55;;;;;;;8.60;3.00;;;33.70;29.30;;;;;;6273305;28;20344;-77
2023/05/25 12:54:01;;;;;;;5.72;2.78;;;33.70;28.90;;;;;;6272896;28;20032;-76
2023/05/25 12:57:20;;;;;;;9.30;3.88;;;33.90;28.70;;;;;;6271773;28;20024;-77
2023/05/25 13:00:32;;;;;;;8.25;1.80;;;34.20;28.10;;;;;;6264365;28;20037;-76
2023/05/25 13:03:42;;;;;;;3.80;2.00;;;34.70;27.70;;;;;;6264366;28;20029;-76
2023/05/25 13:06:49;;;;;;;2.80;1.83;;;35.30;27.20;;;;;;6264616;28;20137;-76
2023/05/25 13:10:00;;;;;;;4.68;1.92;;;36.00;26.70;;;;;;6265430;28;20128;-75
2023/05/25 13:13:08;;;;;;;9.98;2.72;;;36.70;26.00;;;;;;6264699;28;20021;-75
2023/05/25 13:16:17;;;;;;;3.33;2.05;;;37.30;25.40;;;;;;6248347;28;20040;-75
2023/05/25 13:19:27;;;;;;;2.42;1.73;;;37.80;24.50;;;;;;6263554;28;20112;-77
2023/05/25 13:22:31;;;;;;;2.55;1.60;;;37.40;24.20;;;;;;6247345;28;20033;-77
2023/05/25 13:25:37;;;;;;;4.60;1.77;;;36.50;24.80;;;;;;6247484;28;20253;-76
2023/05/25 13:28:47;;;;;;;2.78;1.77;;;36.50;24.80;;;;;;6247040;28;20036;-76
2023/05/25 13:31:53;;;;;;;2.20;1.48;;;36.90;24.30;;;;;;6252134;28;20060;-77
2023/05/25 13:35:06;;;;;;;7.22;1.85;;;37.50;23.90;;;;;;6267013;28;20715;-75
2023/05/25 13:38:14;;;;;;;3.70;1.75;;;38.40;23.10;;;;;;6276971;28;20121;-76
2023/05/25 13:41:21;;;;;;;1.95;1.73;;;38.70;22.90;;;;;;6293320;28;20038;-76
2023/05/25 13:44:26;;;;;;;3.53;1.60;;;38.30;23.10;;;;;;6292815;28;20035;-74
2023/05/25 13:47:32;;;;;;;6.07;2.03;;;37.30;23.70;;;;;;6293072;28;20035;-77
2023/05/25 13:50:45;;;;;;;4.45;2.55;;;37.20;24.10;;;;;;6294527;28;20103;-77
2023/05/25 13:53:52;;;;;;;4.82;2.08;;;38.20;23.60;;;;;;6293602;28;20052;-79
2023/05/25 13:56:58;;;;;;;2.80;1.90;;;39.50;22.70;;;;;;6277623;28;20035;-76
2023/05/25 14:00:03;;;;;;;3.10;1.83;;;40.80;21.80;;;;;;6277290;28;20123;-77
2023/05/25 14:03:13;;;;;;;5.93;1.50;;;41.50;21.20;;;;;;6293285;28;20041;-77
2023/05/25 14:06:19;;;;;;;3.22;1.67;;;42.20;20.60;;;;;;6275972;28;20043;-76
2023/05/25 14:09:24;;;;;;;2.83;1.70;;;42.70;19.80;;;;;;6253780;28;20021;-76
2023/05/25 14:12:27;;;;;;;4.47;2.58;;;42.90;19.60;;;;;;6273267;28;20125;-76
2023/05/25 14:15:32;;;;;;;2.33;2.10;;;43.30;19.30;;;;;;6259974;28;20104;-77
2023/05/25 14:18:36;;;;;;;4.65;2.00;;;43.40;19.10;;;;;;6280276;28;20238;-78
2023/05/25 14:21:39;;;;;;;3.25;2.33;;;43.60;19.00;;;;;;6277529;28;20033;-77
2023/05/25 14:24:46;;;;;;;4.57;2.20;;;43.70;19.00;;;;;;6283233;28;20051;-74
2023/05/25 14:27:52;;;;;;;2.22;1.85;;;43.60;19.00;;;;;;6282825;28;20094;-76
2023/05/25 14:31:00;;;;;;;5.57;2.65;;;43.40;19.20;;;;;;6259749;28;20556;-77
2023/05/25 14:34:08;;;;;;;3.38;2.20;;;43.40;19.30;;;;;;6276304;28;20044;-77
2023/05/25 14:37:12;;;;;;;41.20;17.92;;;43.50;19.00;;;;;;6282156;28;20487;-76
2023/05/25 14:40:15;;;;;;;9.50;3.75;;;43.60;19.00;;;;;;6255844;28;20029;-78
2023/05/25 14:43:20;;;;;;;4.63;1.70;;;43.70;18.90;;;;;;6280016;28;20040;-77
2023/05/25 14:46:27;;;;;;;1.95;1.70;;;43.70;18.70;;;;;;6280664;28;20040;-75
2023/05/25 14:49:31;;;;;;;2.40;1.60;;;43.60;18.80;;;;;;6275658;28;20032;-75
2023/05/25 14:52:36;;;;;;;4.13;1.98;;;43.00;18.70;;;;;;6278015;28;20100;-78
2023/05/25 14:55:41;;;;;;;;;;;41.60;19.60;;;;;;6277946;28;20040;-78
2023/05/25 14:58:43;;;;;;;2.45;2.22;;;39.80;20.80;;;;;;6278419;28;20003;-77
2023/05/25 15:01:45;;;;;;;5.15;2.22;;;38.20;21.90;;;;;;6280260;28;20122;-76
2023/05/25 15:04:53;;;;;;;2.47;1.90;;;37.00;22.70;;;;;;6273355;28;20035;-74
2023/05/25 15:07:55;;;;;;;3.63;2.28;;;36.00;23.60;;;;;;6266284;28;20032;-75
2023/05/25 15:11:05;;;;;;;;;;;35.00;24.20;;;;;;6271480;22;20066;-75
2023/05/25 15:14:12;;;;;;;4.22;2.22;;;34.10;25.10;;;;;;6193466;28;19936;-79
2023/05/25 15:17:23;;;;;;;4.50;1.92;;;33.30;25.80;;;;;;6197929;28;20042;-71
2023/05/25 15:20:37;;;;;;;12.35;3.20;;;32.50;26.50;;;;;;6215493;28;20032;-77
2023/05/25 15:23:42;;;;;;;4.13;2.10;;;31.70;27.20;;;;;;6213754;28;20030;-77
2023/05/25 15:26:48;;;;;;;2.92;1.88;;;31.00;27.90;;;;;;6211548;28;20545;-78
2023/05/25 15:29:54;;;;;;;4.10;2.22;;;30.50;28.50;;;;;;6215184;28;20060;-77
2023/05/25 15:33:01;;;;;;;4.00;2.50;;;30.10;29.00;;;;;;6207373;28;20034;-75
2023/05/25 15:36:10;;;;;;;2.35;1.77;;;29.70;29.50;;;;;;6205539;28;20038;-76
2023/05/25 15:39:14;;;;;;;2.45;1.80;;;29.40;29.90;;;;;;6211529;28;20100;-78
2023/05/25 15:42:16;;;;;;;3.22;1.92;;;29.10;30.10;;;;;;6191088;28;20321;-77
2023/05/25 15:45:19;;;;;;;2.95;2.40;;;29.00;30.70;;;;;;6207449;28;20033;-78
2023/05/25 15:48:23;;;;;;;3.28;2.10;;;28.80;31.30;;;;;;6174058;28;20091;-77
2023/05/25 15:51:25;;;;;;;10.55;2.17;;;28.50;32.20;;;;;;6206610;28;20045;-78
2023/05/25 15:54:29;;;;;;;7.03;2.70;;;28.40;33.10;;;;;;6209605;28;20117;-75
2023/05/25 15:57:32;;;;;;;3.85;2.20;;;28.20;34.30;;;;;;6218520;28;20026;-75
2023/05/25 16:00:34;;;;;;;3.53;2.47;;;27.80;35.90;;;;;;6195537;28;20116;-76
2023/05/25 16:03:37;;;;;;;7.15;2.53;;;27.40;37.60;;;;;;6212749;28;20030;-77
2023/05/25 16:06:48;;;;;;;7.13;3.28;;;27.10;38.30;;;;;;6194805;28;20618;-75
2023/05/25 16:09:50;;;;;;;6.65;3.53;;;26.90;39.00;;;;;;6201200;28;20097;-76
2023/05/25 16:12:55;;;;;;;7.03;3.60;;;26.70;39.60;;;;;;6198783;28;20564;-78
2023/05/25 16:16:05;;;;;;;6.45;3.38;;;26.50;40.60;;;;;;6192728;28;20446;-78
2023/05/25 16:19:08;;;;;;;2.80;2.35;;;26.30;41.40;;;;;;6203831;28;20026;-79
2023/05/25 16:22:14;;;;;;;6.38;3.08;;;26.10;42.20;;;;;;6203284;28;20132;-78